D/T METAR WX W/DIR W/SPE G/SPE TEMP DEWP
7/12/19 22:50 EGSH 072250Z AUTO 21016KT 9999 OVC012/// 09/07 Q1004 SSW (210°) 18.4mph 9°C 7°C
7/12/19 22:20 EGSH 072220Z AUTO 21016G26KT 9999 OVC013/// 09/07 Q1005 SSW (210°) 18.4mph 29.9mph 9°C 7°C
7/12/19 21:20 EGSH 072120Z AUTO 21013KT 9999 OVC014/// 09/06 Q1006 SSW (210°) 15.0mph 9°C 6°C
7/12/19 20:50 EGSH 072050Z AUTO 22015KT 9999 FEW016/// 09/06 Q1007 SW (220°) 17.3mph 9°C 6°C
7/12/19 20:20 EGSH 072020Z AUTO 22014KT 9999 NCD 08/06 Q1007 SW (220°) 16.1mph 8°C 6°C
7/12/19 19:50 EGSH 071950Z 22013KT CAVOK 09/06 Q1008 SW (220°) 15.0mph 9°C 6°C
7/12/19 18:50 EGSH 071850Z 22011KT CAVOK 09/06 Q1009 NOSIG SW (220°) 12.7mph 9°C 6°C
7/12/19 17:50 EGSH 071750Z 22011KT 9999 FEW038 09/06 Q1009 NOSIG SW (220°) 12.7mph 9°C 6°C
7/12/19 17:20 EGSH 071720Z 21011KT CAVOK 09/06 Q1009 SSW (210°) 12.7mph 9°C 6°C
7/12/19 16:50 EGSH 071650Z 21010KT CAVOK 09/06 Q1010 NOSIG SSW (210°) 11.5mph 9°C 6°C
7/12/19 16:20 EGSH 071620Z 21009KT 9999 BKN028 09/06 Q1010 SSW (210°) 10.4mph 9°C 6°C
7/12/19 15:20 EGSH 071520Z 23010KT 9999 SCT029 09/06 Q1011 NOSIG SW (230°) 11.5mph 9°C 6°C
7/12/19 14:50 EGSH 071450Z 23009KT 9999 SCT030 10/06 Q1010 NOSIG SW (230°) 10.4mph 10°C 6°C
7/12/19 13:50 EGSH 071350Z 23009KT 9999 FEW039 10/06 Q1011 NOSIG SW (230°) 10.4mph 10°C 6°C
7/12/19 13:20 EGSH 071320Z 24011KT 9999 BKN038 10/06 Q1011 NOSIG WSW (240°) 12.7mph 10°C 6°C
7/12/19 12:50 EGSH 071250Z 24010KT 9999 BKN036 10/07 Q1011 NOSIG WSW (240°) 11.5mph 10°C 7°C
7/12/19 12:20 EGSH 071220Z 24011KT 9999 BKN041 10/07 Q1011 NOSIG WSW (240°) 12.7mph 10°C 7°C
7/12/19 11:50 EGSH 071150Z 25010KT 9999 BKN039 10/07 Q1012 WSW (250°) 11.5mph 10°C 7°C
7/12/19 11:20 EGSH 071120Z 25011KT 9999 BKN039 09/07 Q1012 WSW (250°) 12.7mph 9°C 7°C
7/12/19 10:50 EGSH 071050Z 24010KT 220V280 9999 BKN040 09/07 Q1012 NOSIG WSW (240°) 11.5mph 9°C 7°C
7/12/19 10:20 EGSH 071020Z 24011KT 9999 BKN040 09/06 Q1012 WSW (240°) 12.7mph 9°C 6°C
7/12/19 09:50 EGSH 070950Z 25011KT 9999 BKN040 09/06 Q1012 NOSIG WSW (250°) 12.7mph 9°C 6°C
7/12/19 09:20 EGSH 070920Z 25011KT 9999 SCT040 09/06 Q1011 NOSIG WSW (250°) 12.7mph 9°C 6°C
7/12/19 08:50 EGSH 070850Z 24010KT 9999 SCT040 08/06 Q1011 NOSIG WSW (240°) 11.5mph 8°C 6°C
7/12/19 08:20 EGSH 070820Z 25010KT 9999 SCT037 08/06 Q1011 WSW (250°) 11.5mph 8°C 6°C
7/12/19 07:50 EGSH 070750Z 24009KT 9999 SCT037 08/06 Q1011 NOSIG WSW (240°) 10.4mph 8°C 6°C
7/12/19 07:20 EGSH 070720Z 24009KT 9999 SCT041 08/06 Q1010 NOSIG WSW (240°) 10.4mph 8°C 6°C
7/12/19 06:50 EGSH 070650Z 24011KT 9999 SCT041 08/06 Q1010 NOSIG WSW (240°) 12.7mph 8°C 6°C
7/12/19 06:20 EGSH 070620Z 24011KT 9999 FEW033 07/05 Q1010 NOSIG WSW (240°) 12.7mph 7°C 5°C
7/12/19 05:50 EGSH 070550Z 25009KT 9999 SCT034 08/06 Q1010 NOSIG WSW (250°) 10.4mph 8°C 6°C
7/12/19 05:20 EGSH 070520Z AUTO 24009KT 9999 FEW025/// BKN031/// 08/06 Q1009 WSW (240°) 10.4mph 8°C 6°C
7/12/19 04:50 EGSH 070450Z AUTO 25011KT 9999 FEW021/// OVC033/// 08/06 Q1009 WSW (250°) 12.7mph 8°C 6°C
7/12/19 04:20 EGSH 070420Z AUTO 25012KT 9999 BKN028/// BKN035/// 08/06 Q1008 WSW (250°) 13.8mph 8°C 6°C
7/12/19 03:50 EGSH 070350Z AUTO 25012KT 9999 BKN028/// 08/06 Q1008 WSW (250°) 13.8mph 8°C 6°C
7/12/19 03:20 EGSH 070320Z AUTO 24013KT 9999 NCD 07/05 Q1008 WSW (240°) 15.0mph 7°C 5°C
7/12/19 02:50 EGSH 070250Z AUTO 24014KT 9999 FEW035/// 07/05 Q1008 WSW (240°) 16.1mph 7°C 5°C
7/12/19 02:20 EGSH 070220Z AUTO 25013KT 9999 FEW035/// 07/06 Q1007 WSW (250°) 15.0mph 7°C 6°C
7/12/19 01:50 EGSH 070150Z AUTO 24013KT 9999 NCD 07/05 Q1007 WSW (240°) 15.0mph 7°C 5°C
7/12/19 01:20 EGSH 070120Z AUTO 25012KT 9999 NCD 07/06 Q1006 WSW (250°) 13.8mph 7°C 6°C
7/12/19 00:50 EGSH 070050Z AUTO 24011KT 9999 NCD 07/05 Q1006 WSW (240°) 12.7mph 7°C 5°C
7/12/19 00:20 EGSH 070020Z AUTO 25012KT 9999 NCD 08/06 Q1006 WSW (250°) 13.8mph 8°C 6°C
6/12/19 23:50 EGSH 062350Z AUTO 25010KT 9999 NCD 08/06 Q1005 WSW (250°) 11.5mph 8°C 6°C
6/12/19 23:20 EGSH 062320Z AUTO 25012KT 9999 NCD 08/06 Q1005 WSW (250°) 13.8mph 8°C 6°C
6/12/19 22:50 EGSH 062250Z AUTO 25012KT 220V280 9999 NCD 08/06 Q1004 WSW (250°) 13.8mph 8°C 6°C
6/12/19 22:20 EGSH 062220Z AUTO 26012KT 9999 NCD 08/06 Q1004 W (260°) 13.8mph 8°C 6°C
6/12/19 21:50 EGSH 062150Z AUTO 26013KT 9999 NCD 08/06 Q1004 W (260°) 15.0mph 8°C 6°C
6/12/19 21:20 EGSH 062120Z 27016G26KT 9999 FEW016 09/07 Q1003 NOSIG W (270°) 18.4mph 29.9mph 9°C 7°C
6/12/19 20:50 EGSH 062050Z 26013KT 240V300 9999 FEW016 09/07 Q1003 NOSIG W (260°) 15.0mph 9°C 7°C